createdAt,value
2017-12-04T00:04:01.044Z,14.90
2017-12-04T00:09:04.469Z,17.80
2017-12-04T00:14:07.119Z,12.10
2017-12-04T00:19:09.679Z,14.60
2017-12-04T00:24:12.244Z,11.20
2017-12-04T00:29:15.584Z,10.23
2017-12-04T00:34:18.207Z,12.33
2017-12-04T00:39:20.811Z,13.20
2017-12-04T00:44:23.438Z,10.07
2017-12-04T00:49:26.814Z,9.20
2017-12-04T00:54:29.397Z,14.00
2017-12-04T00:59:32.278Z,9.80
2017-12-04T01:04:34.987Z,15.27
2017-12-04T01:09:37.565Z,9.40
2017-12-04T01:14:40.220Z,13.80
2017-12-04T01:19:42.882Z,10.30
2017-12-04T01:24:45.621Z,12.53
2017-12-04T01:29:48.252Z,10.13
2017-12-04T01:34:50.843Z,10.63
2017-12-04T01:39:53.819Z,11.50
2017-12-04T01:44:56.436Z,10.53
2017-12-04T01:49:59.899Z,12.03
2017-12-04T01:55:02.760Z,10.40
2017-12-04T02:00:05.988Z,9.10
2017-12-04T02:05:08.569Z,9.00
2017-12-04T02:10:11.158Z,14.43
2017-12-04T02:15:13.832Z,8.03
2017-12-04T02:20:16.428Z,9.37
2017-12-04T02:25:19.037Z,8.97
2017-12-04T02:30:25.404Z,6.57
2017-12-04T02:35:27.967Z,9.63
2017-12-04T02:40:30.540Z,10.07
2017-12-04T02:45:33.155Z,7.70
2017-12-04T02:50:35.776Z,7.50
2017-12-04T02:55:38.397Z,7.70
2017-12-04T03:00:41.807Z,12.03
2017-12-04T03:05:44.438Z,7.97
2017-12-04T03:10:46.996Z,7.77
2017-12-04T03:15:49.632Z,7.70
2017-12-04T03:20:52.233Z,5.97
2017-12-04T03:25:54.855Z,7.57
2017-12-04T03:30:57.455Z,7.40
2017-12-04T03:36:00.097Z,7.30
2017-12-04T03:41:02.711Z,7.93
2017-12-04T03:46:05.306Z,6.80
2017-12-04T03:51:07.878Z,6.20
2017-12-04T03:56:10.490Z,6.33
2017-12-04T04:01:13.087Z,7.97
2017-12-04T04:06:15.681Z,8.77
2017-12-04T04:11:18.279Z,6.90
2017-12-04T04:16:20.843Z,6.63
2017-12-04T04:21:23.422Z,6.47
2017-12-04T04:26:26.857Z,7.20
2017-12-04T04:31:29.488Z,6.97
2017-12-04T04:36:32.152Z,8.53
2017-12-04T04:41:34.770Z,8.07
2017-12-04T04:46:37.418Z,7.27
2017-12-04T04:51:40.152Z,7.73
2017-12-04T04:56:42.778Z,6.37
2017-12-04T05:01:45.426Z,7.33
2017-12-04T05:06:48.885Z,5.00
2017-12-04T05:11:51.487Z,6.90
2017-12-04T05:16:54.106Z,8.03
2017-12-04T05:21:56.719Z,5.30
2017-12-04T05:26:59.342Z,6.20
2017-12-04T05:32:01.930Z,7.40
2017-12-04T05:37:04.507Z,6.80
2017-12-04T05:42:07.899Z,7.23
2017-12-04T05:47:10.506Z,6.17
2017-12-04T05:52:13.190Z,4.73
2017-12-04T05:57:15.756Z,5.40
2017-12-04T06:02:18.362Z,6.53
2017-12-04T06:07:20.940Z,5.53
2017-12-04T06:12:23.509Z,5.20
2017-12-04T06:17:26.076Z,8.10
2017-12-04T06:22:29.448Z,5.33
2017-12-04T06:27:32.166Z,4.80
2017-12-04T06:32:34.761Z,5.67
2017-12-04T06:37:37.436Z,5.40
2017-12-04T06:42:40.071Z,5.80
2017-12-04T06:47:43.321Z,6.00
2017-12-04T06:52:45.938Z,7.87
2017-12-04T06:57:48.499Z,6.17
2017-12-04T07:02:51.126Z,5.57
2017-12-04T07:07:53.975Z,4.63
2017-12-04T07:12:56.564Z,5.63
2017-12-04T07:17:59.177Z,4.80
2017-12-04T07:23:02.526Z,5.40
2017-12-04T07:28:05.120Z,6.63
2017-12-04T07:33:07.682Z,5.07
2017-12-04T07:38:11.123Z,5.10
2017-12-04T07:43:13.853Z,4.50
2017-12-04T07:48:16.447Z,6.10
2017-12-04T07:53:19.071Z,5.07
2017-12-04T07:58:22.450Z,4.27
2017-12-04T08:03:25.073Z,4.00
2017-12-04T08:08:27.670Z,5.63
2017-12-04T08:13:31.025Z,4.50
2017-12-04T08:18:33.672Z,6.27
2017-12-04T08:23:36.243Z,3.80
2017-12-04T08:28:38.932Z,6.80
2017-12-04T08:33:41.554Z,5.47
2017-12-04T08:38:44.158Z,4.60
2017-12-04T08:43:47.130Z,5.73
2017-12-04T08:48:49.807Z,4.13
2017-12-04T08:53:52.450Z,5.23
2017-12-04T08:58:55.113Z,3.67
2017-12-04T09:03:57.753Z,8.23
2017-12-04T09:09:00.378Z,3.97
2017-12-04T09:14:02.974Z,5.67
2017-12-04T09:19:06.130Z,5.63
2017-12-04T09:24:08.707Z,9.37
2017-12-04T09:29:11.378Z,4.77
2017-12-04T09:34:15.431Z,5.47
2017-12-04T09:39:18.861Z,4.03
2017-12-04T09:44:21.455Z,2.83
2017-12-04T09:49:24.051Z,3.80
2017-12-04T09:54:27.459Z,4.63
2017-12-04T09:59:30.038Z,4.40
2017-12-04T10:04:32.646Z,3.67
2017-12-04T10:09:35.302Z,6.03
2017-12-04T10:14:37.908Z,5.77
2017-12-04T10:19:40.457Z,5.40
2017-12-04T10:24:43.048Z,3.30
2017-12-04T10:29:45.780Z,6.27
2017-12-04T10:34:49.980Z,5.10
2017-12-04T10:39:52.588Z,3.67
2017-12-04T10:44:55.240Z,3.33
2017-12-04T10:49:57.820Z,5.83
2017-12-04T10:55:00.405Z,4.00
2017-12-04T11:00:02.979Z,3.13
2017-12-04T11:05:06.340Z,3.90
2017-12-04T11:10:09.109Z,4.23
2017-12-04T11:15:11.749Z,3.20
2017-12-04T11:20:14.347Z,2.80
2017-12-04T11:25:17.063Z,4.23
2017-12-04T11:30:19.671Z,4.50
2017-12-04T11:35:22.256Z,3.27
2017-12-04T11:40:24.865Z,3.20
2017-12-04T11:45:28.208Z,4.47
2017-12-04T11:50:30.820Z,8.30
2017-12-04T11:55:33.447Z,5.23
2017-12-04T12:00:36.059Z,3.27
2017-12-04T12:05:38.665Z,7.97
2017-12-04T12:10:41.338Z,3.60
2017-12-04T12:15:43.926Z,3.80
2017-12-04T12:20:46.482Z,7.17
2017-12-04T12:25:49.071Z,12.20
2017-12-04T12:30:51.654Z,10.87
2017-12-04T12:35:54.229Z,8.20
2017-12-04T12:40:56.883Z,9.77
2017-12-04T12:45:59.480Z,12.43
2017-12-04T12:51:02.062Z,8.60
2017-12-04T12:56:04.672Z,10.80
2017-12-04T13:01:07.263Z,5.50
2017-12-04T13:06:09.905Z,8.73
2017-12-04T13:11:12.465Z,7.87
2017-12-04T13:16:15.041Z,9.93
2017-12-04T13:21:17.608Z,6.93
2017-12-04T13:26:20.428Z,6.77
2017-12-04T13:31:23.629Z,8.40
2017-12-04T13:36:40.038Z,8.13
2017-12-04T13:41:42.656Z,9.33
2017-12-04T13:46:46.172Z,7.60
2017-12-04T13:51:48.862Z,11.20
2017-12-04T13:56:51.455Z,7.33
2017-12-04T14:01:54.711Z,7.30
2017-12-04T14:06:57.309Z,5.27
2017-12-04T14:11:59.938Z,7.10
2017-12-04T14:17:02.636Z,10.77
2017-12-04T14:22:05.981Z,9.83
2017-12-04T14:27:08.574Z,5.83
2017-12-04T14:32:11.242Z,6.07
2017-12-04T14:37:13.822Z,6.07
2017-12-04T14:42:17.156Z,5.13
2017-12-04T14:47:21.581Z,4.60
2017-12-04T14:52:24.370Z,7.90
2017-12-04T14:57:26.960Z,5.97
2017-12-04T15:02:29.774Z,6.40
2017-12-04T15:07:33.145Z,7.07
2017-12-04T15:12:35.769Z,6.43
2017-12-04T15:17:38.372Z,5.80
2017-12-04T15:22:41.779Z,4.83
2017-12-04T15:27:44.348Z,5.17
2017-12-04T15:32:48.193Z,8.63
2017-12-04T15:37:50.791Z,4.60
2017-12-04T15:42:53.379Z,5.77
2017-12-04T15:47:55.984Z,4.43
2017-12-04T15:52:58.600Z,6.10
2017-12-04T15:58:01.186Z,4.93
2017-12-04T16:03:03.739Z,6.20
2017-12-04T16:08:06.340Z,6.37
2017-12-04T16:13:08.970Z,5.83
2017-12-04T16:18:11.555Z,6.30
2017-12-04T16:23:14.118Z,6.80
2017-12-04T16:28:19.112Z,6.13
2017-12-04T16:33:21.722Z,9.40
2017-12-04T16:38:24.335Z,7.50
2017-12-04T16:43:27.064Z,6.37
2017-12-04T16:48:31.800Z,4.70
2017-12-04T16:53:34.418Z,4.40
2017-12-04T16:58:37.031Z,6.97
2017-12-04T17:03:40.455Z,6.40
2017-12-04T17:08:43.377Z,5.33
2017-12-04T17:13:46.777Z,5.17
2017-12-04T17:18:49.432Z,8.10
2017-12-04T17:23:52.049Z,5.33
2017-12-04T17:28:54.770Z,5.20
2017-12-04T17:33:57.514Z,6.30
2017-12-04T17:39:00.333Z,4.70
2017-12-04T17:44:02.936Z,5.77
2017-12-04T17:49:05.541Z,3.60
2017-12-04T17:54:08.904Z,5.00
2017-12-04T17:59:11.470Z,4.70
2017-12-04T18:04:14.415Z,9.00
2017-12-04T18:09:17.031Z,6.27
2017-12-04T18:14:19.653Z,4.67
2017-12-04T18:19:22.231Z,7.27
2017-12-04T18:24:25.595Z,6.07
2017-12-04T18:29:28.205Z,3.80
2017-12-04T18:34:30.824Z,19.70
2017-12-04T18:39:33.440Z,6.63
2017-12-04T18:44:36.090Z,6.60
2017-12-04T18:49:38.741Z,6.80
2017-12-04T18:54:41.304Z,5.73
2017-12-04T18:59:45.706Z,5.07
2017-12-04T19:04:48.338Z,5.27
2017-12-04T19:09:51.063Z,5.50
2017-12-04T19:14:53.753Z,6.23
2017-12-04T19:19:56.353Z,9.43
2017-12-04T19:24:59.380Z,9.43
2017-12-04T19:30:03.170Z,7.07
2017-12-04T19:35:06.521Z,8.07
2017-12-04T19:40:09.288Z,8.00
2017-12-04T19:45:12.630Z,9.80
2017-12-04T19:50:15.244Z,7.40
2017-12-04T19:55:17.884Z,7.97
2017-12-04T20:00:25.913Z,8.47
2017-12-04T20:05:28.489Z,9.00
2017-12-04T20:10:31.143Z,13.90
2017-12-04T20:15:33.794Z,10.70
2017-12-04T20:20:36.463Z,12.33
2017-12-04T20:25:40.147Z,7.93
2017-12-04T20:30:42.790Z,11.07
2017-12-04T20:35:45.372Z,9.50
2017-12-04T20:40:48.112Z,10.87
2017-12-04T20:45:50.859Z,13.30
2017-12-04T20:50:53.455Z,22.43
2017-12-04T20:55:56.080Z,12.43
2017-12-04T21:00:58.692Z,9.80
2017-12-04T21:06:02.074Z,13.23
2017-12-04T21:11:16.352Z,12.93
2017-12-04T21:16:44.664Z,13.30
2017-12-04T21:21:48.006Z,13.90
2017-12-04T21:26:50.618Z,20.80
2017-12-04T21:31:53.221Z,17.70
2017-12-04T21:36:56.726Z,21.30
2017-12-04T21:42:00.014Z,16.73
2017-12-04T21:47:02.614Z,12.13
2017-12-04T21:52:05.182Z,13.37
2017-12-04T21:57:08.724Z,13.37
2017-12-04T22:02:11.774Z,13.97
2017-12-04T22:07:14.416Z,17.50
2017-12-04T22:12:17.613Z,17.83
2017-12-04T22:17:20.969Z,14.80
2017-12-04T22:22:24.340Z,15.03
2017-12-04T22:27:27.688Z,15.03
2017-12-04T22:32:30.285Z,13.43
2017-12-04T22:37:33.071Z,10.00
2017-12-04T22:42:35.662Z,16.47
2017-12-04T22:47:38.314Z,12.80
2017-12-04T22:52:40.919Z,11.43
2017-12-04T22:57:43.566Z,14.37
2017-12-04T23:02:47.068Z,13.77
2017-12-04T23:07:49.725Z,10.70
2017-12-04T23:12:52.315Z,21.30
2017-12-04T23:17:56.342Z,11.53
2017-12-04T23:22:58.912Z,10.20
2017-12-04T23:28:01.519Z,13.37
2017-12-04T23:33:04.098Z,10.50
2017-12-04T23:38:06.683Z,12.90
2017-12-04T23:43:10.321Z,10.90
2017-12-04T23:48:14.638Z,13.40
2017-12-04T23:53:17.229Z,11.13
2017-12-04T23:58:19.844Z,11.30
